createdAt,value
2017-10-08T00:04:20.519Z,0
2017-10-08T00:07:06.103Z,0
2017-10-08T00:09:51.931Z,0
2017-10-08T00:12:05.746Z,0
2017-10-08T00:14:51.582Z,0
2017-10-08T00:17:05.081Z,0
2017-10-08T00:29:11.433Z,0
2017-10-08T00:38:31.653Z,0
2017-10-08T00:47:20.387Z,0
2017-10-08T00:53:23.563Z,0
2017-10-08T00:55:37.367Z,0
2017-10-08T01:00:37.016Z,0
2017-10-08T01:05:04.869Z,0
2017-10-08T01:15:36.053Z,0
2017-10-08T01:18:53.662Z,0
2017-10-08T01:24:56.528Z,0
2017-10-08T01:29:55.847Z,0
2017-10-08T01:32:41.112Z,0
2017-10-08T01:38:12.574Z,0
2017-10-08T01:44:53.910Z,0
2017-10-08T01:47:39.738Z,0
2017-10-08T01:49:53.535Z,0
2017-10-08T01:58:10.455Z,0
2017-10-08T02:07:06.151Z,0
2017-10-08T02:09:19.639Z,0
2017-10-08T02:11:01.345Z,0
2017-10-08T02:12:43.626Z,0
2017-10-08T02:13:53.871Z,0
2017-10-08T02:15:35.887Z,0
2017-10-08T02:17:49.622Z,0
2017-10-08T02:21:06.980Z,0
2017-10-08T02:22:17.258Z,0
2017-10-08T02:25:41.245Z,0
2017-10-08T02:38:57.174Z,0
2017-10-08T02:41:42.760Z,0
2017-10-08T02:48:55.882Z,0
2017-10-08T02:50:38.153Z,0
2017-10-08T02:52:51.966Z,0
2017-10-08T02:56:09.571Z,0
2017-10-08T02:58:23.063Z,0
2017-10-08T03:03:22.378Z,0
2017-10-08T03:07:50.227Z,0
2017-10-08T03:10:04.024Z,0
2017-10-08T03:12:49.860Z,0
2017-10-08T03:14:31.884Z,0
2017-10-08T03:21:45.239Z,0
2017-10-08T03:24:30.819Z,0
2017-10-08T03:26:12.837Z,0
2017-10-08T03:30:40.438Z,0
2017-10-08T03:36:11.531Z,0
2017-10-08T03:38:57.361Z,0
2017-10-08T03:40:39.093Z,0
2017-10-08T03:46:10.507Z,0
2017-10-08T03:58:22.993Z,0
2017-10-08T04:00:05.264Z,0
2017-10-08T04:01:46.974Z,0
2017-10-08T04:07:18.068Z,0
2017-10-08T04:16:06.769Z,0
2017-10-08T04:18:20.569Z,0
2017-10-08T04:20:34.058Z,0
2017-10-08T04:22:48.115Z,0
2017-10-08T04:36:04.434Z,0
2017-10-08T04:44:21.406Z,0
2017-10-08T04:57:06.253Z,0
2017-10-08T05:01:34.106Z,0
2017-10-08T05:03:47.281Z,0
2017-10-08T05:09:50.718Z,0
2017-10-08T05:11:32.749Z,0
2017-10-08T05:13:14.783Z,0
2017-10-08T05:16:00.617Z,0
2017-10-08T05:23:45.508Z,0
2017-10-08T05:25:27.477Z,0
2017-10-08T05:32:02.446Z,5
2017-10-08T05:34:16.246Z,10
2017-10-08T05:35:57.881Z,10
2017-10-08T05:39:21.932Z,10
2017-10-08T05:41:35.976Z,10
2017-10-08T06:00:54.836Z,30
2017-10-08T06:06:26.235Z,40
2017-10-08T06:13:07.919Z,70
2017-10-08T06:15:53.183Z,65
2017-10-08T06:25:20.677Z,85
2017-10-08T06:26:30.922Z,85
2017-10-08T06:28:44.723Z,90
2017-10-08T06:31:30.554Z,85
2017-10-08T06:39:54.243Z,75
2017-10-08T06:41:36.514Z,85
2017-10-08T06:48:11.218Z,135
2017-10-08T06:52:07.310Z,170
2017-10-08T07:00:23.990Z,125
2017-10-08T07:02:37.724Z,125
2017-10-08T07:04:19.439Z,90
2017-10-08T07:06:01.149Z,100
2017-10-08T07:07:43.430Z,95
2017-10-08T07:16:32.253Z,105
2017-10-08T07:18:46.370Z,130
2017-10-08T07:29:16.539Z,265
2017-10-08T07:35:19.666Z,195
2017-10-08T07:37:01.378Z,215
2017-10-08T07:44:46.338Z,210
2017-10-08T07:47:32.165Z,230
2017-10-08T07:50:17.741Z,235
2017-10-08T07:53:03.258Z,255
2017-10-08T07:58:34.349Z,395
2017-10-08T08:00:16.052Z,410
2017-10-08T08:06:25.316Z,490
2017-10-08T08:08:07.342Z,480
2017-10-08T08:09:49.614Z,510
2017-10-08T08:18:06.280Z,415
2017-10-08T08:20:52.113Z,395
2017-10-08T08:23:05.923Z,435
2017-10-08T08:31:23.159Z,490
2017-10-08T08:36:22.785Z,550
2017-10-08T08:56:14.131Z,585
2017-10-08T08:58:28.231Z,595
2017-10-08T09:03:59.654Z,520
2017-10-08T09:06:13.478Z,470
2017-10-08T09:07:55.780Z,400
2017-10-08T09:09:37.806Z,375
2017-10-08T09:12:23.389Z,480
2017-10-08T09:13:33.910Z,595
2017-10-08T09:14:43.862Z,660
2017-10-08T09:15:54.146Z,730
2017-10-08T09:17:35.857Z,630
2017-10-08T09:20:21.386Z,605
2017-10-08T09:25:21.024Z,385
2017-10-08T09:27:03.065Z,370
2017-10-08T09:30:58.845Z,620
2017-10-08T09:36:30.262Z,945
2017-10-08T09:41:29.922Z,980
2017-10-08T09:47:33.111Z,1310
2017-10-08T09:49:15.157Z,1710
2017-10-08T09:52:00.995Z,1125
2017-10-08T10:03:03.573Z,2335
2017-10-08T10:05:17.402Z,685
2017-10-08T10:08:41.782Z,750
2017-10-08T10:11:27.379Z,465
2017-10-08T10:20:16.627Z,1395
2017-10-08T10:26:26.210Z,2585
2017-10-08T10:31:25.553Z,2590
2017-10-08T10:34:43.221Z,2650
2017-10-08T10:41:18.210Z,845
2017-10-08T10:46:17.236Z,715
2017-10-08T10:51:16.603Z,685
2017-10-08T10:53:30.114Z,425
2017-10-08T10:59:01.549Z,375
2017-10-08T11:02:19.159Z,440
2017-10-08T11:07:49.960Z,2630
2017-10-08T11:09:00.223Z,2755
2017-10-08T11:12:56.062Z,2745
2017-10-08T11:20:09.544Z,2730
2017-10-08T11:22:23.044Z,2695
2017-10-08T11:27:57.495Z,2715
2017-10-08T11:29:07.990Z,2740
2017-10-08T11:30:17.933Z,2795
2017-10-08T11:31:28.179Z,2760
2017-10-08T11:32:38.420Z,2785
2017-10-08T11:33:48.707Z,2825
2017-10-08T11:34:58.908Z,2865
2017-10-08T11:36:08.860Z,2870
2017-10-08T11:37:19.113Z,2835
2017-10-08T11:38:29.367Z,2895
2017-10-08T11:39:39.616Z,3040
2017-10-08T11:40:49.822Z,3130
2017-10-08T11:41:59.773Z,3130
2017-10-08T11:43:09.738Z,3020
2017-10-08T11:44:19.992Z,2990
2017-10-08T11:45:29.946Z,3065
2017-10-08T11:46:40.143Z,3160
2017-10-08T11:47:50.400Z,3225
2017-10-08T11:49:00.710Z,3270
2017-10-08T11:50:10.971Z,3265
2017-10-08T11:51:21.242Z,3245
2017-10-08T11:52:31.444Z,3190
2017-10-08T11:53:41.749Z,3105
2017-10-08T11:54:51.733Z,1345
2017-10-08T11:56:02.022Z,610
2017-10-08T11:57:11.955Z,630
2017-10-08T11:58:22.452Z,630
2017-10-08T11:59:32.075Z,680
2017-10-08T12:00:42.025Z,1695
2017-10-08T12:01:52.295Z,630
2017-10-08T12:03:01.946Z,570
2017-10-08T12:04:12.447Z,440
2017-10-08T12:05:22.712Z,455
2017-10-08T12:06:32.651Z,495
2017-10-08T12:07:42.901Z,3000
2017-10-08T12:08:53.154Z,3055
2017-10-08T12:10:03.671Z,3170
2017-10-08T12:11:13.605Z,3185
2017-10-08T12:12:23.877Z,3180
2017-10-08T12:13:34.156Z,2155
2017-10-08T12:14:44.399Z,3100
2017-10-08T12:15:54.949Z,2610
2017-10-08T12:17:04.885Z,2315
2017-10-08T12:18:14.828Z,3320
2017-10-08T12:19:24.774Z,760
2017-10-08T12:20:35.033Z,3150
2017-10-08T12:21:45.540Z,580
2017-10-08T12:22:55.821Z,620
2017-10-08T12:24:05.757Z,580
2017-10-08T12:25:16.022Z,2270
2017-10-08T12:26:26.276Z,3050
2017-10-08T12:27:36.789Z,2815
2017-10-08T12:28:47.050Z,2780
2017-10-08T12:29:56.674Z,2925
2017-10-08T12:31:06.912Z,3085
2017-10-08T12:32:16.853Z,3095
2017-10-08T12:33:27.366Z,3090
2017-10-08T12:34:37.605Z,3055
2017-10-08T12:35:47.574Z,2960
2017-10-08T12:36:57.509Z,2915
2017-10-08T12:38:07.455Z,2975
2017-10-08T12:39:17.649Z,3070
2017-10-08T12:40:27.908Z,3115
2017-10-08T12:41:37.847Z,3110
2017-10-08T12:42:48.102Z,3070
2017-10-08T12:43:58.364Z,3100
2017-10-08T12:45:08.560Z,3180
2017-10-08T12:46:18.824Z,1335
2017-10-08T12:47:29.081Z,660
2017-10-08T12:48:39.342Z,670
2017-10-08T12:49:49.606Z,3025
2017-10-08T12:50:59.851Z,570
2017-10-08T12:52:09.472Z,710
2017-10-08T12:53:19.421Z,3120
2017-10-08T12:54:29.668Z,2600
2017-10-08T12:55:39.953Z,660
2017-10-08T12:56:50.452Z,3035
2017-10-08T12:58:00.721Z,2940
2017-10-08T12:59:10.977Z,3000
2017-10-08T13:00:21.258Z,3120
2017-10-08T13:01:31.195Z,3160
2017-10-08T13:02:41.087Z,3315
2017-10-08T13:03:51.329Z,3225
2017-10-08T13:05:01.631Z,3125
2017-10-08T13:06:11.577Z,1305
2017-10-08T13:07:21.524Z,3185
2017-10-08T13:08:31.721Z,3080
2017-10-08T13:09:41.971Z,2995
2017-10-08T13:10:52.209Z,2980
2017-10-08T13:12:02.476Z,2995
2017-10-08T13:13:12.741Z,2860
2017-10-08T13:14:23.253Z,3005
2017-10-08T13:15:33.519Z,3130
2017-10-08T13:16:43.138Z,3035
2017-10-08T13:17:53.405Z,3065
2017-10-08T13:19:03.680Z,3060
2017-10-08T13:20:13.872Z,3040
2017-10-08T13:21:23.826Z,2940
2017-10-08T13:22:34.087Z,2810
2017-10-08T13:23:44.028Z,2840
2017-10-08T13:24:54.296Z,2905
2017-10-08T13:26:04.807Z,2920
2017-10-08T13:27:14.762Z,2930
2017-10-08T13:28:25.025Z,2920
2017-10-08T13:29:35.275Z,2865
2017-10-08T13:30:45.538Z,2860
2017-10-08T13:31:56.065Z,2860
2017-10-08T13:33:06.332Z,2990
2017-10-08T13:34:16.281Z,3060
2017-10-08T13:35:25.279Z,2925
2017-10-08T13:36:35.537Z,2830
2017-10-08T13:37:46.067Z,2880
2017-10-08T13:38:56.323Z,2610
2017-10-08T13:40:06.600Z,3015
2017-10-08T13:41:16.572Z,2975
2017-10-08T13:42:26.847Z,3025
2017-10-08T13:43:37.039Z,1505
2017-10-08T13:44:47.299Z,3010
2017-10-08T13:45:57.586Z,2905
2017-10-08T13:47:07.827Z,2855
2017-10-08T13:48:17.770Z,1150
2017-10-08T13:49:28.314Z,2965
2017-10-08T13:50:38.426Z,3040
2017-10-08T13:51:48.381Z,750
2017-10-08T13:52:58.647Z,1010
2017-10-08T13:54:08.613Z,700
2017-10-08T13:55:18.832Z,660
2017-10-08T13:56:29.081Z,640
2017-10-08T13:57:39.328Z,645
2017-10-08T13:58:48.945Z,2625
2017-10-08T13:59:58.576Z,2640
2017-10-08T14:01:09.081Z,2620
2017-10-08T14:02:19.339Z,2595
2017-10-08T14:03:29.322Z,2625
2017-10-08T14:04:39.262Z,2605
2017-10-08T14:05:49.516Z,2555
2017-10-08T14:07:00.015Z,2425
2017-10-08T14:08:09.968Z,2485
2017-10-08T14:09:20.217Z,2485
2017-10-08T14:10:30.733Z,2495
2017-10-08T14:11:40.712Z,1950
2017-10-08T14:12:50.957Z,575
2017-10-08T14:14:01.219Z,1460
2017-10-08T14:15:11.154Z,550
2017-10-08T14:16:21.400Z,530
2017-10-08T14:17:31.652Z,535
2017-10-08T14:18:42.232Z,2250
2017-10-08T14:19:52.486Z,2325
2017-10-08T14:21:02.729Z,2255
2017-10-08T14:22:12.352Z,2255
2017-10-08T14:23:22.634Z,2265
2017-10-08T14:24:33.143Z,2255
2017-10-08T14:25:43.080Z,2170
2017-10-08T14:26:53.341Z,2135
2017-10-08T14:28:03.595Z,2095
2017-10-08T14:29:13.853Z,2150
2017-10-08T14:30:24.353Z,2100
2017-10-08T14:31:34.605Z,345
2017-10-08T14:32:44.852Z,340
2017-10-08T14:33:55.105Z,360
2017-10-08T14:35:05.376Z,915
2017-10-08T14:36:15.270Z,2145
2017-10-08T14:37:25.526Z,375
2017-10-08T14:38:35.481Z,2005
2017-10-08T14:39:44.778Z,2000
2017-10-08T14:40:55.027Z,1970
2017-10-08T14:42:05.208Z,1930
2017-10-08T14:43:14.538Z,1960
2017-10-08T14:44:24.792Z,2000
2017-10-08T14:45:35.047Z,1970
2017-10-08T14:46:44.978Z,1900
2017-10-08T14:47:55.167Z,1860
2017-10-08T14:49:05.101Z,1825
2017-10-08T14:50:15.350Z,1730
2017-10-08T14:51:25.593Z,1745
2017-10-08T14:52:35.223Z,1760
2017-10-08T14:53:45.729Z,1755
2017-10-08T14:54:55.988Z,1725
2017-10-08T14:56:06.230Z,1695
2017-10-08T14:57:16.518Z,1675
2017-10-08T14:58:26.766Z,1675
2017-10-08T14:59:37.268Z,1720
2017-10-08T15:00:47.216Z,1690
2017-10-08T15:01:57.502Z,1655
2017-10-08T15:03:07.818Z,1610
2017-10-08T15:04:17.767Z,1535
2017-10-08T15:05:28.286Z,1470
2017-10-08T15:06:38.550Z,1435
2017-10-08T15:07:48.810Z,1305
2017-10-08T15:08:59.082Z,1350
2017-10-08T15:10:09.368Z,1420
2017-10-08T15:11:19.865Z,430
2017-10-08T15:12:29.812Z,1320
2017-10-08T15:13:39.762Z,1210
2017-10-08T15:14:50.015Z,1445
2017-10-08T15:15:59.947Z,1655
2017-10-08T15:17:10.467Z,1390
2017-10-08T15:18:20.724Z,1220
2017-10-08T15:19:31.025Z,1245
2017-10-08T15:20:41.290Z,1215
2017-10-08T15:21:51.546Z,955
2017-10-08T15:23:01.744Z,860
2017-10-08T15:24:12.002Z,415
2017-10-08T15:25:21.938Z,260
2017-10-08T15:26:31.873Z,250
2017-10-08T15:27:41.817Z,240
2017-10-08T15:28:52.413Z,230
2017-10-08T15:30:02.354Z,230
2017-10-08T15:31:12.622Z,535
2017-10-08T15:32:22.571Z,245
2017-10-08T15:33:32.867Z,855
2017-10-08T15:34:43.383Z,970
2017-10-08T15:35:53.356Z,940
2017-10-08T15:37:03.302Z,955
2017-10-08T15:38:13.556Z,885
2017-10-08T15:39:23.807Z,785
2017-10-08T15:40:34.321Z,750
2017-10-08T15:41:44.560Z,605
2017-10-08T15:42:54.179Z,485
2017-10-08T15:44:04.444Z,600
2017-10-08T15:45:14.690Z,520
2017-10-08T15:46:25.183Z,400
2017-10-08T15:47:35.433Z,260
2017-10-08T15:48:45.686Z,590
2017-10-08T15:49:55.321Z,375
2017-10-08T15:51:05.572Z,575
2017-10-08T15:52:15.756Z,555
2017-10-08T15:53:25.691Z,530
2017-10-08T15:54:35.963Z,500
2017-10-08T15:55:46.220Z,485
2017-10-08T15:56:56.468Z,435
2017-10-08T15:58:06.984Z,270
2017-10-08T15:59:17.259Z,340
2017-10-08T16:00:27.507Z,340
2017-10-08T16:01:37.447Z,205
2017-10-08T16:02:47.725Z,110
2017-10-08T16:03:57.925Z,100
2017-10-08T16:05:07.861Z,95
2017-10-08T16:06:17.783Z,90
2017-10-08T16:07:28.026Z,85
2017-10-08T16:08:38.287Z,80
2017-10-08T16:09:48.794Z,80
2017-10-08T16:10:59.044Z,75
2017-10-08T16:12:09.294Z,70
2017-10-08T16:13:19.236Z,65
2017-10-08T16:14:28.854Z,60
2017-10-08T16:15:39.357Z,55
2017-10-08T16:16:48.982Z,50
2017-10-08T16:17:59.241Z,45
2017-10-08T16:19:09.189Z,40
2017-10-08T16:20:19.132Z,35
2017-10-08T16:21:29.632Z,35
2017-10-08T16:22:39.894Z,30
2017-10-08T16:23:49.848Z,30
2017-10-08T16:25:00.091Z,25
2017-10-08T16:26:10.374Z,25
2017-10-08T16:27:21.067Z,20
2017-10-08T16:28:31.314Z,20
2017-10-08T16:29:41.606Z,15
2017-10-08T16:30:51.855Z,15
2017-10-08T16:32:02.110Z,15
2017-10-08T16:33:12.294Z,10
2017-10-08T16:34:22.568Z,10
2017-10-08T16:35:32.509Z,10
2017-10-08T16:36:42.444Z,5
2017-10-08T16:37:52.692Z,5
2017-10-08T16:39:02.889Z,5
2017-10-08T16:40:12.846Z,5
2017-10-08T16:41:23.129Z,5
2017-10-08T16:42:33.387Z,0
2017-10-08T16:43:43.641Z,0
2017-10-08T16:44:53.506Z,0
2017-10-08T16:46:03.445Z,0
2017-10-08T16:47:13.053Z,0
2017-10-08T16:48:23.287Z,0
2017-10-08T16:49:33.220Z,0
2017-10-08T16:50:43.800Z,0
2017-10-08T16:51:54.055Z,0
2017-10-08T16:53:04.299Z,0
2017-10-08T16:54:14.553Z,0
2017-10-08T16:55:24.502Z,0
2017-10-08T16:56:34.999Z,0
2017-10-08T16:57:45.453Z,0
2017-10-08T16:58:55.726Z,0
2017-10-08T17:00:05.972Z,0
2017-10-08T17:01:15.901Z,0
2017-10-08T17:02:26.400Z,0
2017-10-08T17:03:36.355Z,0
2017-10-08T17:04:46.302Z,0
2017-10-08T17:05:56.542Z,0
2017-10-08T17:07:06.808Z,0
2017-10-08T17:08:17.378Z,0
2017-10-08T17:09:27.300Z,0
2017-10-08T17:10:37.572Z,0
2017-10-08T17:11:47.833Z,0
2017-10-08T17:12:58.081Z,0
2017-10-08T17:14:08.260Z,0
2017-10-08T17:15:18.510Z,0
2017-10-08T17:16:28.745Z,0
2017-10-08T17:17:38.997Z,0
2017-10-08T17:18:49.286Z,0
2017-10-08T17:19:59.481Z,0
2017-10-08T17:21:09.768Z,0
2017-10-08T17:22:19.709Z,0
2017-10-08T17:23:29.969Z,0
2017-10-08T17:24:40.213Z,0
2017-10-08T17:25:50.707Z,0
2017-10-08T17:27:00.966Z,0
2017-10-08T17:28:11.218Z,0
2017-10-08T17:29:21.478Z,0
2017-10-08T17:30:31.755Z,0
2017-10-08T17:31:42.277Z,0
2017-10-08T17:32:52.213Z,0
2017-10-08T17:34:02.171Z,0
2017-10-08T17:35:12.440Z,0
2017-10-08T17:36:22.376Z,0
2017-10-08T17:37:32.563Z,0
2017-10-08T17:38:42.831Z,0
2017-10-08T17:39:52.778Z,0
2017-10-08T17:41:03.047Z,0
2017-10-08T17:42:13.317Z,0
2017-10-08T17:43:23.815Z,0
2017-10-08T17:44:34.065Z,0
2017-10-08T17:45:44.316Z,0
2017-10-08T17:46:54.571Z,0
2017-10-08T17:48:04.815Z,0
2017-10-08T17:49:15.321Z,0
2017-10-08T17:50:25.583Z,0
2017-10-08T17:51:35.841Z,0
2017-10-08T17:52:46.141Z,0
2017-10-08T17:53:56.370Z,0
2017-10-08T17:55:06.554Z,0
2017-10-08T17:56:16.167Z,0
2017-10-08T17:57:26.417Z,0
2017-10-08T17:58:36.687Z,0
2017-10-08T17:59:46.625Z,0
2017-10-08T18:00:57.113Z,0
2017-10-08T18:02:07.360Z,0
2017-10-08T18:03:17.612Z,0
2017-10-08T18:04:27.233Z,0
2017-10-08T18:05:37.175Z,0
2017-10-08T18:06:47.365Z,0
2017-10-08T18:07:57.607Z,0
2017-10-08T18:09:07.835Z,0
2017-10-08T18:10:17.787Z,0
2017-10-08T18:11:27.717Z,0
2017-10-08T18:12:37.606Z,0
2017-10-08T18:13:47.851Z,0
2017-10-08T18:14:58.114Z,0
2017-10-08T18:16:08.145Z,0
2017-10-08T18:17:17.769Z,0
2017-10-08T18:18:27.979Z,0
2017-10-08T18:19:38.226Z,0
2017-10-08T18:20:48.477Z,0
2017-10-08T18:21:58.419Z,0
2017-10-08T18:23:08.659Z,0
2017-10-08T18:24:19.175Z,0
2017-10-08T18:25:29.444Z,0
2017-10-08T18:26:39.716Z,0
2017-10-08T18:27:49.652Z,0
2017-10-08T18:28:59.897Z,0
2017-10-08T18:30:10.403Z,0
2017-10-08T18:31:20.645Z,0
2017-10-08T18:32:30.902Z,0
2017-10-08T18:33:41.155Z,0
2017-10-08T18:34:51.439Z,0
2017-10-08T18:36:02.002Z,0
2017-10-08T18:37:11.936Z,0
2017-10-08T18:38:22.188Z,0
2017-10-08T18:39:32.454Z,0
2017-10-08T18:40:42.732Z,0
2017-10-08T18:41:53.262Z,0
2017-10-08T18:43:03.524Z,0
2017-10-08T18:44:13.774Z,0
2017-10-08T18:45:23.933Z,0
2017-10-08T18:46:34.207Z,0
2017-10-08T18:47:44.699Z,0
2017-10-08T18:48:54.947Z,0
2017-10-08T18:50:04.881Z,0
2017-10-08T18:51:15.144Z,0
2017-10-08T18:52:25.437Z,0
2017-10-08T18:53:35.958Z,0
2017-10-08T18:54:46.216Z,0
2017-10-08T18:55:56.166Z,0
2017-10-08T18:57:06.420Z,0
2017-10-08T18:58:16.359Z,0
2017-10-08T18:59:26.541Z,0
2017-10-08T19:00:36.812Z,0
2017-10-08T19:01:47.055Z,0
2017-10-08T19:02:57.321Z,0
2017-10-08T19:04:07.562Z,0
2017-10-08T19:05:18.058Z,0
2017-10-08T19:06:28.296Z,0
2017-10-08T19:07:38.537Z,0
2017-10-08T19:08:48.471Z,0
2017-10-08T19:09:58.710Z,0
2017-10-08T19:11:08.897Z,0
2017-10-08T19:12:19.143Z,0
2017-10-08T19:13:29.088Z,0
2017-10-08T19:14:39.037Z,0
2017-10-08T19:15:49.275Z,0
2017-10-08T19:16:59.795Z,0
2017-10-08T19:18:10.058Z,0
2017-10-08T19:19:20.309Z,0
2017-10-08T19:20:30.571Z,0
2017-10-08T19:21:40.831Z,0
2017-10-08T19:22:51.321Z,0
2017-10-08T19:24:01.259Z,0
2017-10-08T19:25:10.867Z,0
2017-10-08T19:26:20.814Z,0
2017-10-08T19:27:30.424Z,0
2017-10-08T19:28:40.928Z,0
2017-10-08T19:29:51.201Z,0
2017-10-08T19:31:01.126Z,0
2017-10-08T19:32:10.751Z,0
2017-10-08T19:33:20.062Z,0
2017-10-08T19:34:30.550Z,0
2017-10-08T19:35:40.800Z,0
2017-10-08T19:36:51.051Z,0
2017-10-08T19:38:01.015Z,0
2017-10-08T19:39:11.279Z,0
2017-10-08T19:40:21.483Z,0
2017-10-08T19:41:31.412Z,0
2017-10-08T19:42:41.673Z,0
2017-10-08T19:43:51.925Z,0
2017-10-08T19:45:02.168Z,0
2017-10-08T19:46:12.352Z,0
2017-10-08T19:47:22.591Z,0
2017-10-08T19:48:32.860Z,0
2017-10-08T19:49:43.115Z,0
2017-10-08T19:50:52.741Z,0
2017-10-08T19:52:02.961Z,0
2017-10-08T19:53:13.220Z,0
2017-10-08T19:54:23.477Z,0
2017-10-08T19:55:33.403Z,0
2017-10-08T19:56:43.050Z,0
2017-10-08T19:57:53.572Z,0
2017-10-08T19:59:03.183Z,0
2017-10-08T20:00:13.122Z,0
2017-10-08T20:01:22.746Z,0
2017-10-08T20:02:32.675Z,0
2017-10-08T20:03:42.856Z,0
2017-10-08T20:04:53.103Z,0
2017-10-08T20:06:03.351Z,0
2017-10-08T20:07:13.295Z,0
2017-10-08T20:08:23.220Z,0
2017-10-08T20:09:33.401Z,0
2017-10-08T20:10:43.356Z,0
2017-10-08T20:11:53.608Z,0
2017-10-08T20:13:03.850Z,0
2017-10-08T20:14:14.112Z,0
2017-10-08T20:15:23.982Z,0
2017-10-08T20:16:33.904Z,0
2017-10-08T20:17:44.168Z,0
2017-10-08T20:18:54.415Z,0
2017-10-08T20:20:04.359Z,0
2017-10-08T20:21:13.909Z,0
2017-10-08T20:22:23.861Z,0
2017-10-08T20:23:34.117Z,0
2017-10-08T20:24:44.375Z,0
2017-10-08T20:25:54.307Z,0
2017-10-08T20:27:04.806Z,0
2017-10-08T20:28:15.069Z,0
2017-10-08T20:29:24.993Z,0
2017-10-08T20:30:35.250Z,0
2017-10-08T20:31:45.500Z,0
2017-10-08T20:32:55.675Z,0
2017-10-08T20:34:05.623Z,0
2017-10-08T20:35:15.889Z,0
2017-10-08T20:36:26.158Z,0
2017-10-08T20:37:36.086Z,0
2017-10-08T20:38:46.576Z,0
2017-10-08T20:39:56.509Z,0
2017-10-08T20:41:06.435Z,0
2017-10-08T20:42:16.395Z,0
2017-10-08T20:43:26.010Z,0
2017-10-08T20:44:36.532Z,0
2017-10-08T20:45:46.770Z,0
2017-10-08T20:46:57.007Z,0
2017-10-08T20:48:06.948Z,0
2017-10-08T20:49:17.206Z,0
2017-10-08T20:50:26.782Z,0
2017-10-08T20:51:37.023Z,0
2017-10-08T20:52:46.954Z,0
2017-10-08T20:53:56.884Z,0
2017-10-08T20:55:07.131Z,0
2017-10-08T20:56:17.645Z,0
2017-10-08T20:57:27.883Z,0
2017-10-08T20:58:38.135Z,0
2017-10-08T20:59:48.405Z,0
2017-10-08T21:00:58.660Z,0
2017-10-08T21:02:09.210Z,0
2017-10-08T21:03:19.140Z,0
2017-10-08T21:04:29.072Z,0
2017-10-08T21:05:39.321Z,0
2017-10-08T21:06:49.572Z,0
2017-10-08T21:08:00.051Z,0
2017-10-08T21:09:09.999Z,0
2017-10-08T21:10:20.229Z,0
2017-10-08T21:11:30.469Z,0
2017-10-08T21:12:40.077Z,0
2017-10-08T21:13:49.946Z,0
2017-10-08T21:15:00.204Z,0
2017-10-08T21:16:10.137Z,0
2017-10-08T21:17:20.381Z,0
2017-10-08T21:18:30.628Z,0
2017-10-08T21:19:40.809Z,0
2017-10-08T21:20:50.419Z,0
2017-10-08T21:22:00.676Z,0
2017-10-08T21:23:10.929Z,0
2017-10-08T21:24:21.175Z,0
2017-10-08T21:25:31.658Z,0
2017-10-08T21:26:41.588Z,0
2017-10-08T21:27:51.821Z,0
2017-10-08T21:29:01.431Z,0
2017-10-08T21:30:11.671Z,0
2017-10-08T21:31:22.168Z,0
2017-10-08T21:32:32.417Z,0
2017-10-08T21:33:42.354Z,0
2017-10-08T21:34:52.604Z,0
2017-10-08T21:36:02.837Z,0
2017-10-08T21:37:13.324Z,0
2017-10-08T21:38:23.571Z,0
2017-10-08T21:39:33.508Z,0
2017-10-08T21:40:43.759Z,0
2017-10-08T21:41:54.002Z,0
2017-10-08T21:43:04.493Z,0
2017-10-08T21:44:14.727Z,0
2017-10-08T21:45:24.989Z,0
2017-10-08T21:46:35.221Z,0
2017-10-08T21:47:45.156Z,0
2017-10-08T21:48:55.687Z,0
2017-10-08T21:50:05.919Z,0
2017-10-08T21:51:16.170Z,0
2017-10-08T21:52:26.102Z,0
2017-10-08T21:53:36.369Z,0
2017-10-08T21:54:46.553Z,0
2017-10-08T21:55:56.481Z,0
2017-10-08T21:57:06.740Z,0
2017-10-08T21:58:16.985Z,0
2017-10-08T21:59:27.229Z,0
2017-10-08T22:00:37.721Z,0
2017-10-08T22:01:47.953Z,0
2017-10-08T22:02:57.888Z,0
2017-10-08T22:04:08.133Z,0
2017-10-08T22:05:18.376Z,0
2017-10-08T22:06:28.562Z,0
2017-10-08T22:07:38.808Z,0
2017-10-08T22:08:48.416Z,0
2017-10-08T22:09:58.660Z,0
2017-10-08T22:11:08.901Z,0
2017-10-08T22:12:19.398Z,0
2017-10-08T22:13:29.683Z,0
2017-10-08T22:14:39.923Z,0
2017-10-08T22:15:50.163Z,0
2017-10-08T22:17:00.402Z,0
2017-10-08T22:18:10.889Z,0
2017-10-08T22:19:21.138Z,0
2017-10-08T22:20:31.067Z,0
2017-10-08T22:21:41.301Z,0
2017-10-08T22:22:51.229Z,0
2017-10-08T22:24:01.407Z,0
2017-10-08T22:25:11.335Z,0
2017-10-08T22:26:20.952Z,0
2017-10-08T22:27:31.227Z,0
2017-10-08T22:28:41.151Z,0
2017-10-08T22:29:51.324Z,0
2017-10-08T22:31:01.575Z,0
2017-10-08T22:32:11.831Z,0
2017-10-08T22:33:22.076Z,0
2017-10-08T22:34:32.315Z,0
2017-10-08T22:35:42.851Z,0
2017-10-08T22:36:53.090Z,0
2017-10-08T22:38:02.701Z,0
2017-10-08T22:39:12.938Z,0
2017-10-08T22:40:23.183Z,0
2017-10-08T22:41:33.670Z,0
2017-10-08T22:42:43.919Z,0
2017-10-08T22:43:54.159Z,0
2017-10-08T22:45:04.412Z,0
2017-10-08T22:46:14.657Z,0
2017-10-08T22:47:25.154Z,0
2017-10-08T22:48:35.387Z,0
2017-10-08T22:49:45.310Z,0
2017-10-08T22:50:55.603Z,0
2017-10-08T22:52:05.843Z,0
2017-10-08T22:53:16.008Z,0
2017-10-08T22:54:25.928Z,0
2017-10-08T22:55:36.180Z,0
2017-10-08T22:56:46.434Z,0
2017-10-08T22:57:56.670Z,0
2017-10-08T22:59:07.185Z,0
2017-10-08T23:00:17.443Z,0
2017-10-08T23:01:27.372Z,0
2017-10-08T23:02:37.297Z,0
2017-10-08T23:03:47.538Z,0
2017-10-08T23:04:58.028Z,0
2017-10-08T23:06:07.956Z,0
2017-10-08T23:07:17.911Z,0
2017-10-08T23:08:28.144Z,0
2017-10-08T23:09:38.376Z,0
2017-10-08T23:10:48.902Z,0
2017-10-08T23:11:59.143Z,0
2017-10-08T23:13:09.093Z,0
2017-10-08T23:14:19.019Z,0
2017-10-08T23:15:28.959Z,0
2017-10-08T23:16:39.464Z,0
2017-10-08T23:17:49.725Z,0
2017-10-08T23:18:59.966Z,0
2017-10-08T23:20:10.213Z,0
2017-10-08T23:21:20.452Z,0
2017-10-08T23:22:30.937Z,0
2017-10-08T23:23:41.180Z,0
2017-10-08T23:24:51.416Z,0
2017-10-08T23:26:01.664Z,0
2017-10-08T23:27:11.908Z,0
2017-10-08T23:28:22.106Z,0
2017-10-08T23:29:32.034Z,0
2017-10-08T23:30:42.275Z,0
2017-10-08T23:31:52.515Z,0
2017-10-08T23:33:02.765Z,0
2017-10-08T23:34:13.248Z,0
2017-10-08T23:35:23.175Z,0
2017-10-08T23:36:33.373Z,0
2017-10-08T23:37:43.615Z,0
2017-10-08T23:38:53.857Z,0
2017-10-08T23:40:04.340Z,0
2017-10-08T23:41:14.268Z,0
2017-10-08T23:42:24.500Z,0
2017-10-08T23:43:34.438Z,0
2017-10-08T23:44:44.678Z,0
2017-10-08T23:45:55.191Z,0
2017-10-08T23:47:05.125Z,0
2017-10-08T23:48:15.060Z,0
2017-10-08T23:49:25.289Z,0
2017-10-08T23:50:35.219Z,0
2017-10-08T23:51:45.385Z,0
2017-10-08T23:52:55.628Z,0
2017-10-08T23:54:05.869Z,0
2017-10-08T23:55:16.110Z,0
2017-10-08T23:56:26.032Z,0
2017-10-08T23:57:36.535Z,0
2017-10-08T23:58:46.777Z,0
2017-10-08T23:59:57.010Z,0
